Time;durP1;ratioP1;P1;durP2;ratioP2;P2;SDS_P1;SDS_P2;PMS_P1;PMS_P2;Temp;Humidity;BMP_temperature;BMP_pressure;BME280_temperature;BME280_humidity;BME280_pressure;Samples;Min_cycle;Max_cycle;Signal;HPM_P1;HPM_P2
2021/11/16 00:02:24;;;;;;;55.53;25.42;;;4.80;99.90;;;;;;12258238;28;20047;-88
2021/11/16 00:08:28;;;;;;;62.15;25.67;;;4.90;99.90;;;;;;12246130;28;20587;-89
2021/11/16 00:14:31;;;;;;;68.85;28.02;;;5.00;99.90;;;;;;12231733;28;20134;-89
2021/11/16 00:20:38;;;;;;;59.85;26.00;;;4.90;99.90;;;;;;12211696;29;20052;-88
2021/11/16 00:26:41;;;;;;;52.53;24.50;;;4.90;99.90;;;;;;12212353;29;20114;-88
2021/11/16 00:32:44;;;;;;;63.87;26.27;;;4.80;99.90;;;;;;12254053;28;20109;-89
2021/11/16 00:38:47;;;;;;;59.50;25.00;;;4.90;99.90;;;;;;12265835;28;20133;-87
2021/11/16 00:44:49;;;;;;;68.93;28.08;;;4.80;99.90;;;;;;12241172;28;20109;-88
2021/11/16 00:50:57;;;;;;;53.25;25.10;;;4.70;99.90;;;;;;12257547;28;20409;-88
2021/11/16 00:56:59;;;;;;;77.03;31.83;;;4.80;99.90;;;;;;12245337;28;20047;-89
2021/11/16 01:03:01;;;;;;;68.60;30.38;;;4.70;99.90;;;;;;12250012;28;20047;-87
2021/11/16 01:09:03;;;;;;;82.75;33.08;;;4.70;99.90;;;;;;12243515;28;20083;-89
2021/11/16 01:15:07;;;;;;;84.45;34.08;;;4.80;99.90;;;;;;12241181;28;20069;-88
2021/11/16 01:21:09;;;;;;;78.53;31.42;;;4.80;99.90;;;;;;12241379;28;20420;-88
2021/11/16 01:27:17;;;;;;;64.53;27.75;;;4.70;99.90;;;;;;12249126;28;20435;-88
2021/11/16 01:33:26;;;;;;;61.45;27.55;;;4.70;99.90;;;;;;12247187;28;20043;-88
2021/11/16 01:39:28;;;;;;;74.25;29.55;;;4.70;99.90;;;;;;12246569;28;20082;-87
2021/11/16 01:45:30;;;;;;;60.72;26.48;;;4.70;99.90;;;;;;12245373;28;20195;-89
2021/11/16 01:51:32;;;;;;;60.88;26.42;;;4.70;99.90;;;;;;12246157;28;20499;-87
2021/11/16 01:57:35;;;;;;;61.33;26.02;;;4.70;99.90;;;;;;12240751;28;21087;-89
2021/11/16 02:03:38;;;;;;;53.22;23.95;;;4.70;99.90;;;;;;12241676;28;20134;-87
2021/11/16 02:09:43;;;;;;;53.00;22.15;;;4.70;99.90;;;;;;12259792;28;20058;-87
2021/11/16 02:15:49;;;;;;;56.88;23.42;;;4.60;99.90;;;;;;12250540;28;20102;-89
2021/11/16 02:21:51;;;;;;;55.30;25.33;;;4.70;99.90;;;;;;12270230;28;20496;-89
2021/11/16 02:27:54;;;;;;;58.53;25.08;;;4.70;99.90;;;;;;12254053;28;20077;-89
2021/11/16 02:33:57;;;;;;;62.05;24.88;;;4.60;99.90;;;;;;12263619;28;20058;-89
2021/11/16 02:40:04;;;;;;;56.88;24.80;;;4.60;99.90;;;;;;12270700;28;20186;-89
2021/11/16 02:46:06;;;;;;;50.80;22.73;;;4.70;99.90;;;;;;12249455;28;20063;-87
2021/11/16 02:52:13;;;;;;;56.80;24.17;;;4.60;99.90;;;;;;12258029;28;20047;-88
2021/11/16 02:58:16;;;;;;;62.15;25.63;;;4.70;99.90;;;;;;12252794;28;20094;-89
2021/11/16 03:04:21;;;;;;;56.08;25.52;;;4.80;99.90;;;;;;12256427;28;20213;-88
2021/11/16 03:10:27;;;;;;;57.50;24.40;;;4.70;99.90;;;;;;12249134;28;20098;-87
2021/11/16 03:16:29;;;;;;;60.17;25.95;;;4.70;99.90;;;;;;12253001;28;20058;-89
2021/11/16 03:22:50;;;;;;;60.63;24.38;;;4.70;99.90;;;;;;12252655;28;20047;-89
2021/11/16 03:28:53;;;;;;;58.67;22.92;;;4.70;99.90;;;;;;12269789;28;20097;-89
2021/11/16 03:34:56;;;;;;;49.97;23.50;;;4.70;99.90;;;;;;12266998;28;20043;-88
2021/11/16 03:40:58;;;;;;;45.95;19.42;;;4.60;99.90;;;;;;12244682;28;20559;-88
2021/11/16 03:47:01;;;;;;;44.08;19.35;;;4.50;99.90;;;;;;12256007;28;20086;-88
2021/11/16 03:53:03;;;;;;;42.97;18.42;;;4.40;99.90;;;;;;12268829;28;20070;-87
2021/11/16 03:59:06;;;;;;;47.22;19.60;;;4.40;99.90;;;;;;12254305;28;20051;-88
2021/11/16 04:05:10;;;;;;;43.88;20.02;;;4.50;99.90;;;;;;12252893;28;20051;-88
2021/11/16 04:11:12;;;;;;;45.83;20.27;;;4.50;99.90;;;;;;12253414;28;20051;-89
2021/11/16 04:17:15;;;;;;;47.25;18.67;;;4.50;99.90;;;;;;12259860;28;20151;-89
2021/11/16 04:23:18;;;;;;;48.58;19.17;;;4.50;99.90;;;;;;12265940;28;20117;-87
2021/11/16 04:29:19;;;;;;;48.15;20.52;;;4.50;99.90;;;;;;12254709;28;20051;-88
2021/11/16 04:35:21;;;;;;;47.78;20.20;;;4.40;99.90;;;;;;12258125;28;20073;-88
2021/11/16 04:41:24;;;;;;;45.47;19.80;;;4.50;99.90;;;;;;12252689;28;20054;-88
2021/11/16 04:47:34;;;;;;;48.38;20.38;;;4.60;99.90;;;;;;12242252;28;20047;-88
2021/11/16 05:06:24;;;;;;;49.55;20.52;;;4.60;99.90;;;;;;12268631;28;20055;-88
2021/11/16 05:12:32;;;;;;;46.45;20.25;;;4.60;99.90;;;;;;12251512;28;20047;-88
2021/11/16 05:18:48;;;;;;;55.33;20.42;;;4.80;99.90;;;;;;12279870;28;20138;-88
2021/11/16 05:24:51;;;;;;;51.05;21.25;;;4.70;99.90;;;;;;12251350;28;20043;-88
2021/11/16 05:30:53;;;;;;;48.67;20.20;;;4.70;99.90;;;;;;12262988;28;20603;-89
2021/11/16 05:36:55;;;;;;;49.75;20.75;;;4.70;99.90;;;;;;12251976;28;20105;-90
2021/11/16 05:42:57;;;;;;;50.45;20.23;;;4.70;99.90;;;;;;12238084;28;20109;-89
2021/11/16 05:48:59;;;;;;;51.22;20.10;;;4.60;99.90;;;;;;12256923;28;20506;-88
2021/11/16 05:55:01;;;;;;;52.08;20.25;;;4.60;99.90;;;;;;12252417;28;20047;-88
2021/11/16 06:01:11;;;;;;;46.03;19.27;;;4.60;99.90;;;;;;12227015;28;20602;-89
2021/11/16 06:07:13;;;;;;;46.28;20.92;;;4.70;99.90;;;;;;12254893;28;20055;-89
2021/11/16 06:13:16;;;;;;;47.10;21.00;;;4.80;99.90;;;;;;12264365;28;20043;-89
2021/11/16 06:19:24;;;;;;;53.35;21.35;;;4.80;99.90;;;;;;12242805;28;20062;-89
2021/11/16 06:25:26;;;;;;;48.92;21.13;;;4.70;99.90;;;;;;12248018;28;20590;-88
2021/11/16 06:31:30;;;;;;;52.70;21.23;;;4.60;99.90;;;;;;12248559;28;20436;-89
2021/11/16 06:37:32;;;;;;;52.88;21.17;;;4.60;99.90;;;;;;12245885;28;20085;-89
2021/11/16 06:43:35;;;;;;;45.50;18.75;;;4.60;99.90;;;;;;12236394;28;20154;-89
2021/11/16 06:49:40;;;;;;;45.85;19.58;;;4.70;99.90;;;;;;12269793;28;20090;-89
2021/11/16 06:55:42;;;;;;;34.97;15.60;;;4.80;99.90;;;;;;12233125;28;20051;-89
2021/11/16 07:01:45;;;;;;;35.25;14.90;;;4.90;99.90;;;;;;12247879;28;20043;-88
2021/11/16 07:07:48;;;;;;;39.78;17.23;;;5.00;99.90;;;;;;12258448;28;20050;-88
2021/11/16 07:14:09;;;;;;;44.10;18.30;;;4.90;99.90;;;;;;12249797;28;20083;-88
2021/11/16 07:20:12;;;;;;;45.67;18.95;;;4.90;99.90;;;;;;12261440;28;20059;-88
2021/11/16 07:26:16;;;;;;;44.55;19.08;;;4.90;99.90;;;;;;12252124;28;20051;-89
2021/11/16 07:32:46;;;;;;;51.63;19.77;;;4.70;99.90;;;;;;12265917;28;20058;-90
2021/11/16 07:38:51;;;;;;;50.97;20.58;;;4.80;99.90;;;;;;12291344;28;20362;-88
2021/11/16 07:45:00;;;;;;;46.17;19.17;;;4.80;99.90;;;;;;12255194;28;20050;-89
2021/11/16 07:51:11;;;;;;;51.97;20.83;;;4.80;99.90;;;;;;12248063;28;20158;-89
2021/11/16 07:57:16;;;;;;;54.95;21.30;;;4.80;99.90;;;;;;12253357;28;20114;-88
2021/11/16 08:03:44;;;;;;;47.95;19.80;;;4.80;99.90;;;;;;12254870;28;20081;-88
2021/11/16 08:09:52;;;;;;;49.47;20.65;;;4.80;99.90;;;;;;12258098;28;20415;-89
2021/11/16 08:16:05;;;;;;;46.63;19.85;;;4.90;99.90;;;;;;12257861;28;20502;-89
2021/11/16 08:22:13;;;;;;;46.20;19.95;;;4.90;99.90;;;;;;12255952;28;20097;-88
2021/11/16 08:28:15;;;;;;;51.10;19.73;;;5.00;99.90;;;;;;12245161;28;20051;-88
2021/11/16 08:34:18;;;;;;;47.80;19.95;;;5.00;99.90;;;;;;12270325;28;20043;-88
2021/11/16 08:40:22;;;;;;;45.80;18.73;;;4.90;99.90;;;;;;12245238;28;20068;-88
2021/11/16 08:46:30;;;;;;;51.10;19.03;;;4.90;99.90;;;;;;12264104;28;20085;-88
2021/11/16 08:52:34;;;;;;;43.00;18.65;;;4.90;99.90;;;;;;12253512;28;20305;-89
2021/11/16 08:58:36;;;;;;;40.70;17.08;;;4.90;99.90;;;;;;12277324;28;20190;-88
2021/11/16 09:04:43;;;;;;;39.08;15.75;;;5.00;99.90;;;;;;12252272;28;20051;-89
2021/11/16 09:10:47;;;;;;;35.60;15.02;;;5.00;99.90;;;;;;12273908;28;20071;-88
2021/11/16 09:16:50;;;;;;;35.22;15.20;;;4.90;99.90;;;;;;12275883;28;20062;-88
2021/11/16 09:22:55;;;;;;;40.22;16.08;;;4.90;99.90;;;;;;12233177;28;20089;-88
2021/11/16 09:29:07;;;;;;;39.85;16.27;;;5.00;99.90;;;;;;12268390;28;20043;-88
2021/11/16 09:35:12;;;;;;;41.00;16.45;;;4.90;99.90;;;;;;12248861;28;20046;-88
2021/11/16 09:41:35;;;;;;;47.53;17.75;;;5.00;99.90;;;;;;12251968;28;20090;-88
2021/11/16 09:47:39;;;;;;;42.45;16.80;;;5.10;99.90;;;;;;12248682;28;20063;-88
2021/11/16 09:53:41;;;;;;;40.33;16.30;;;5.10;99.90;;;;;;12239684;28;20145;-88
2021/11/16 09:59:46;;;;;;;30.15;13.45;;;5.20;99.90;;;;;;12257745;28;20047;-87
2021/11/16 10:05:54;;;;;;;29.13;12.63;;;5.10;99.90;;;;;;12249945;28;20082;-87
2021/11/16 10:11:56;;;;;;;27.52;12.02;;;5.10;99.90;;;;;;12256592;28;20138;-88
2021/11/16 10:17:59;;;;;;;28.60;12.50;;;4.80;99.90;;;;;;12247964;28;20051;-89
2021/11/16 10:24:18;;;;;;;29.35;12.18;;;4.70;99.90;;;;;;12246097;28;20047;-87
2021/11/16 10:30:32;;;;;;;25.30;11.90;;;4.80;99.90;;;;;;12259104;28;20113;-88
2021/11/16 10:36:37;;;;;;;27.08;12.35;;;4.80;99.90;;;;;;12264539;28;20051;-88
2021/11/16 10:42:42;;;;;;;25.17;11.52;;;4.80;99.90;;;;;;12253968;28;20082;-89
2021/11/16 10:48:45;;;;;;;24.88;11.10;;;4.90;99.90;;;;;;12257758;28;20046;-89
2021/11/16 10:54:58;;;;;;;28.20;11.70;;;5.10;99.90;;;;;;12248827;28;20505;-87
2021/11/16 11:01:05;;;;;;;27.13;11.50;;;5.10;99.90;;;;;;12239149;28;20078;-88
2021/11/16 11:07:10;;;;;;;23.00;10.68;;;4.90;99.90;;;;;;12256752;28;20074;-88
2021/11/16 11:13:19;;;;;;;26.88;12.32;;;4.90;99.90;;;;;;12255616;28;20566;-88
2021/11/16 11:19:34;;;;;;;27.73;13.07;;;4.70;99.90;;;;;;12246919;28;20082;-89
2021/11/16 11:25:56;;;;;;;29.75;13.35;;;4.50;99.90;;;;;;12254938;28;20047;-88
2021/11/16 11:32:15;;;;;;;28.70;13.07;;;4.60;99.90;;;;;;12264351;28;20051;-88
2021/11/16 11:38:17;;;;;;;29.83;13.38;;;4.50;99.90;;;;;;12260274;28;20074;-89
2021/11/16 11:44:24;;;;;;;30.80;14.30;;;4.50;99.90;;;;;;12267152;28;20055;-89
2021/11/16 11:50:46;;;;;;;26.83;13.18;;;4.60;99.90;;;;;;12271648;28;20102;-88
2021/11/16 11:56:50;;;;;;;25.95;12.70;;;4.60;99.90;;;;;;12274210;28;20130;-89
2021/11/16 12:02:53;;;;;;;;;;;4.80;99.90;;;;;;12254971;28;20047;-88
2021/11/16 12:08:58;;;;;;;;;;;4.70;99.90;;;;;;12268949;28;19953;-88
2021/11/16 12:15:07;;;;;;;26.05;11.75;;;4.70;99.90;;;;;;12265804;28;19952;-89
2021/11/16 12:21:35;;;;;;;25.30;11.23;;;4.70;99.90;;;;;;12241922;28;20335;-89
2021/11/16 12:27:37;;;;;;;26.10;12.10;;;4.70;99.90;;;;;;12261010;28;20051;-89
2021/11/16 12:33:45;;;;;;;22.40;11.18;;;4.80;99.90;;;;;;12252523;28;20145;-88
2021/11/16 12:40:00;;;;;;;28.77;12.35;;;4.70;99.90;;;;;;12243214;28;20043;-89
2021/11/16 12:46:02;;;;;;;34.53;13.18;;;4.60;99.90;;;;;;12244989;28;20047;-89
2021/11/16 12:52:10;;;;;;;32.03;14.52;;;4.60;99.90;;;;;;12246761;28;20388;-88
2021/11/16 12:58:26;;;;;;;33.25;14.65;;;4.60;99.90;;;;;;12265499;28;20051;-88
2021/11/16 13:04:50;;;;;;;33.90;14.00;;;4.60;99.90;;;;;;12248607;28;20051;-89
2021/11/16 13:10:58;;;;;;;32.42;12.98;;;4.60;99.90;;;;;;12251357;28;20105;-90
2021/11/16 13:17:00;;;;;;;34.17;15.40;;;4.70;99.90;;;;;;12251095;28;20114;-88
2021/11/16 13:23:16;;;;;;;36.47;15.02;;;4.80;99.90;;;;;;12253612;28;20114;-87
2021/11/16 13:29:20;;;;;;;40.97;17.85;;;4.60;99.90;;;;;;12264552;28;20059;-89
2021/11/16 13:35:23;;;;;;;44.42;17.85;;;4.60;99.90;;;;;;12249882;28;20054;-89
2021/11/16 13:41:59;;;;;;;38.60;15.95;;;4.60;99.90;;;;;;12256463;28;20113;-88
2021/11/16 13:48:01;;;;;;;36.53;16.25;;;4.80;99.90;;;;;;12264180;28;20063;-88
2021/11/16 13:54:04;;;;;;;34.22;14.57;;;4.80;99.90;;;;;;12240015;28;20518;-88
2021/11/16 14:00:10;;;;;;;29.60;14.30;;;4.80;99.90;;;;;;12251888;28;20062;-87
2021/11/16 14:06:19;;;;;;;32.00;14.77;;;4.70;99.90;;;;;;12261379;28;20102;-88
2021/11/16 14:12:23;;;;;;;32.90;13.70;;;4.80;99.90;;;;;;12261122;28;20109;-88
2021/11/16 14:18:25;;;;;;;;;;;4.60;99.90;;;;;;12239000;28;20516;-88
2021/11/16 14:24:34;;;;;;;28.67;14.48;;;4.50;99.90;;;;;;12250703;28;19927;-88
2021/11/16 14:30:36;;;;;;;31.58;14.35;;;4.50;99.90;;;;;;12245167;28;20476;-88
2021/11/16 14:36:44;;;;;;;28.00;13.88;;;4.60;99.90;;;;;;12250443;28;20571;-89
2021/11/16 14:42:47;;;;;;;30.33;14.68;;;4.60;99.90;;;;;;12245560;28;20058;-89
2021/11/16 14:48:56;;;;;;;24.20;12.95;;;4.50;99.90;;;;;;12249331;28;20051;-88
2021/11/16 14:55:08;;;;;;;29.38;14.98;;;4.50;99.90;;;;;;12260383;28;20117;-88
2021/11/16 15:01:12;;;;;;;29.05;14.55;;;4.60;99.90;;;;;;12245156;28;20114;-87
2021/11/16 15:07:18;;;;;;;30.37;14.03;;;4.60;99.90;;;;;;12247961;28;20047;-88
2021/11/16 15:13:20;;;;;;;29.88;14.20;;;4.60;99.90;;;;;;12244271;28;20058;-88
2021/11/16 15:19:31;;;;;;;31.58;14.55;;;4.60;99.90;;;;;;12221563;29;20516;-88
2021/11/16 15:25:50;;;;;;;32.03;14.93;;;4.70;99.90;;;;;;12201535;29;20508;-88
2021/11/16 15:31:52;;;;;;;33.50;14.70;;;4.50;99.90;;;;;;12210945;29;20055;-88
2021/11/16 15:37:55;;;;;;;33.13;14.77;;;4.50;99.90;;;;;;12223602;29;20052;-89
2021/11/16 16:02:52;;;;;;;34.90;14.95;;;4.50;99.90;;;;;;12223001;29;20264;-88
2021/11/16 16:08:59;;;;;;;32.75;15.60;;;4.50;99.90;;;;;;12205858;29;20460;-89
2021/11/16 16:15:01;;;;;;;32.92;15.45;;;4.40;99.90;;;;;;12208936;29;20086;-88
2021/11/16 16:21:10;;;;;;;29.88;15.32;;;4.50;99.90;;;;;;12254613;28;20058;-89
2021/11/16 16:27:14;;;;;;;34.50;14.75;;;4.60;99.90;;;;;;12258313;28;20117;-87
2021/11/16 16:33:16;;;;;;;32.67;15.52;;;4.50;99.90;;;;;;12263897;28;20486;-90
2021/11/16 16:39:19;;;;;;;34.95;15.25;;;4.60;99.90;;;;;;12263765;28;20047;-89
2021/11/16 16:45:21;;;;;;;35.85;16.67;;;4.70;99.90;;;;;;12257345;28;20057;-87
2021/11/16 16:51:25;;;;;;;34.22;16.45;;;4.70;99.90;;;;;;12238807;28;20043;-89
2021/11/16 16:57:31;;;;;;;32.55;15.68;;;4.50;99.90;;;;;;12264125;28;20467;-88
2021/11/16 17:03:34;;;;;;;34.30;15.38;;;4.50;99.90;;;;;;12247790;28;20062;-88
2021/11/16 17:09:56;;;;;;;34.85;15.85;;;4.40;99.90;;;;;;12254230;28;20051;-90
2021/11/16 17:15:58;;;;;;;35.63;15.73;;;4.50;99.90;;;;;;12250321;28;20491;-88
2021/11/16 17:22:02;;;;;;;33.75;16.67;;;4.50;99.90;;;;;;12258380;28;20157;-87
2021/11/16 17:28:04;;;;;;;31.63;17.30;;;4.40;99.90;;;;;;12254789;28;20130;-89
2021/11/16 17:34:06;;;;;;;37.08;17.52;;;4.40;99.90;;;;;;12254100;28;20622;-87
2021/11/16 17:40:09;;;;;;;32.78;17.15;;;4.50;99.90;;;;;;12263979;28;20117;-90
2021/11/16 17:46:11;;;;;;;32.10;16.63;;;4.50;99.90;;;;;;12237249;28;20086;-88
2021/11/16 17:52:13;;;;;;;32.80;18.33;;;4.50;99.90;;;;;;12247555;28;20039;-87
2021/11/16 17:58:15;;;;;;;34.15;17.50;;;4.50;99.90;;;;;;12247107;28;20113;-88
2021/11/16 18:04:25;;;;;;;31.63;16.45;;;4.50;99.90;;;;;;12248921;28;20054;-89
2021/11/16 18:10:30;;;;;;;32.78;16.13;;;4.40;99.90;;;;;;12234214;28;20086;-89
2021/11/16 18:16:33;;;;;;;38.40;17.55;;;4.40;99.90;;;;;;12268160;28;20073;-89
2021/11/16 18:22:37;;;;;;;34.03;17.08;;;4.50;99.90;;;;;;12250521;28;20051;-89
2021/11/16 18:28:41;;;;;;;31.63;16.10;;;4.40;99.90;;;;;;12252015;28;20063;-89
2021/11/16 18:34:44;;;;;;;39.97;19.00;;;4.60;99.90;;;;;;12262371;28;20055;-89
2021/11/16 18:40:53;;;;;;;40.42;18.50;;;4.60;99.90;;;;;;12247811;28;20047;-88
2021/11/16 18:47:42;;;;;;;37.75;18.10;;;4.60;99.90;;;;;;12246209;28;20507;-88
2021/11/16 18:53:19;;;;;;;40.63;19.20;;;4.60;99.90;;;;;;12253420;28;20089;-90
2021/11/16 18:59:23;;;;;;;36.95;18.23;;;4.60;99.90;;;;;;12255319;28;20055;-89
2021/11/16 19:05:27;;;;;;;33.38;18.25;;;4.50;99.90;;;;;;12257442;28;20407;-88
2021/11/16 19:11:32;;;;;;;41.63;19.83;;;4.60;99.90;;;;;;12261228;28;20066;-89
2021/11/16 19:17:35;;;;;;;37.35;19.63;;;4.50;99.90;;;;;;12286442;28;20067;-89
2021/11/16 19:23:53;;;;;;;39.42;20.98;;;4.50;99.90;;;;;;12298825;28;20486;-89
2021/11/16 19:29:57;;;;;;;42.27;20.33;;;4.50;99.90;;;;;;12255807;28;20051;-90
2021/11/16 19:36:00;;;;;;;45.40;20.67;;;4.60;99.90;;;;;;12255680;28;20043;-90
2021/11/16 19:42:03;;;;;;;41.60;20.15;;;4.60;99.90;;;;;;12270214;28;20158;-89
2021/11/16 19:48:06;;;;;;;47.85;20.55;;;4.70;99.90;;;;;;12257548;28;20051;-89
2021/11/16 19:54:09;;;;;;;38.65;19.00;;;4.90;99.90;;;;;;12257998;28;20051;-88
2021/11/16 20:00:13;;;;;;;41.55;19.60;;;4.70;99.90;;;;;;12269186;28;20046;-88
2021/11/16 20:06:14;;;;;;;34.60;18.00;;;4.80;99.90;;;;;;12257993;28;20138;-90
2021/11/16 20:12:18;;;;;;;40.65;18.52;;;4.70;99.90;;;;;;12261334;28;20163;-89
2021/11/16 20:18:20;;;;;;;46.00;21.08;;;4.70;99.90;;;;;;12255740;28;20059;-89
2021/11/16 20:24:23;;;;;;;45.40;20.77;;;4.60;99.90;;;;;;12254708;28;20067;-88
2021/11/16 20:30:28;;;;;;;50.42;19.95;;;4.50;99.90;;;;;;12258968;28;20467;-89
2021/11/16 20:36:32;;;;;;;39.28;18.60;;;4.60;99.90;;;;;;12256730;28;20082;-89
2021/11/16 21:01:35;;;;;;;50.08;22.52;;;4.50;99.90;;;;;;12270305;28;20062;-88
2021/11/16 21:07:39;;;;;;;49.85;21.67;;;4.50;99.90;;;;;;12257855;28;20315;-89
2021/11/16 21:13:43;;;;;;;51.28;22.00;;;4.50;99.90;;;;;;12271567;28;20066;-90
2021/11/16 21:19:46;;;;;;;53.38;22.73;;;4.60;99.90;;;;;;12260329;28;20055;-89
2021/11/16 21:25:48;;;;;;;49.42;22.27;;;4.50;99.90;;;;;;12267453;28;20135;-89
2021/11/16 21:31:50;;;;;;;53.03;22.63;;;4.50;99.90;;;;;;12262223;28;20086;-89
2021/11/16 21:37:52;;;;;;;51.72;23.17;;;4.40;99.90;;;;;;12262424;28;20058;-88
2021/11/16 21:44:00;;;;;;;54.65;22.90;;;4.50;99.90;;;;;;12264988;28;20043;-88
2021/11/16 21:50:03;;;;;;;52.95;23.00;;;4.40;99.90;;;;;;12255032;28;20133;-89
2021/11/16 21:56:08;;;;;;;58.63;23.65;;;4.40;99.90;;;;;;12250048;28;20055;-89
2021/11/16 22:02:11;;;;;;;54.97;22.77;;;4.40;99.90;;;;;;12258822;28;20047;-90
2021/11/16 22:08:19;;;;;;;54.00;22.65;;;4.40;99.90;;;;;;12260652;28;20120;-89
2021/11/16 22:14:22;;;;;;;54.20;24.23;;;4.40;99.90;;;;;;12265982;28;20109;-88
2021/11/16 22:20:24;;;;;;;58.55;23.85;;;4.40;99.90;;;;;;12230797;28;1096320;-89
2021/11/16 22:26:26;;;;;;;53.17;21.90;;;4.50;99.90;;;;;;12249932;28;20134;-88
2021/11/16 22:32:33;;;;;;;53.33;23.38;;;4.50;99.90;;;;;;12245937;28;20466;-88
2021/11/16 22:38:35;;;;;;;56.05;23.70;;;4.40;99.90;;;;;;12248635;28;20178;-88
2021/11/16 22:44:41;;;;;;;58.83;23.77;;;4.50;99.90;;;;;;12259532;28;20145;-88
2021/11/16 22:50:45;;;;;;;52.30;22.35;;;4.50;99.90;;;;;;12251048;28;20426;-88
2021/11/16 22:56:48;;;;;;;56.78;23.63;;;4.40;99.90;;;;;;12257608;28;20496;-88
